createdAt,value
2023-01-31T00:01:11.552Z,4.35
2023-01-31T00:03:40.030Z,3.45
2023-01-31T00:06:17.352Z,3.90
2023-01-31T00:08:45.433Z,3.90
2023-01-31T00:11:13.391Z,3.88
2023-01-31T00:13:41.497Z,4.05
2023-01-31T00:16:09.831Z,3.67
2023-01-31T00:18:39.241Z,4.00
2023-01-31T00:21:11.095Z,3.67
2023-01-31T00:23:40.672Z,3.70
2023-01-31T00:26:10.675Z,3.45
2023-01-31T00:28:38.564Z,3.63
2023-01-31T00:31:06.824Z,3.33
2023-01-31T00:33:35.306Z,3.55
2023-01-31T00:36:05.601Z,3.63
2023-01-31T00:38:33.546Z,3.72
2023-01-31T00:41:03.940Z,3.83
2023-01-31T00:43:32.001Z,3.50
2023-01-31T00:45:59.955Z,3.38
2023-01-31T00:48:27.864Z,3.58
2023-01-31T00:50:55.765Z,3.40
2023-01-31T00:53:24.187Z,3.30
2023-01-31T00:55:52.212Z,3.22
2023-01-31T00:58:21.562Z,3.55
2023-01-31T01:00:49.719Z,3.25
2023-01-31T01:03:18.377Z,3.50
2023-01-31T01:05:46.267Z,3.42
2023-01-31T01:08:14.284Z,2.92
2023-01-31T01:10:42.168Z,3.20
2023-01-31T01:13:10.043Z,3.00
2023-01-31T01:15:40.127Z,2.85
2023-01-31T01:18:08.216Z,3.00
2023-01-31T01:20:36.589Z,3.13
2023-01-31T01:23:04.580Z,3.20
2023-01-31T01:25:32.824Z,3.03
2023-01-31T01:28:01.336Z,2.88
2023-01-31T01:30:29.239Z,3.13
2023-01-31T01:32:58.472Z,3.13
2023-01-31T01:35:26.451Z,3.03
2023-01-31T01:37:54.330Z,3.30
2023-01-31T01:40:22.336Z,3.00
2023-01-31T01:42:50.217Z,2.95
2023-01-31T01:45:20.079Z,2.88
2023-01-31T01:47:50.501Z,2.72
2023-01-31T01:50:23.142Z,2.95
2023-01-31T01:52:53.197Z,2.72
2023-01-31T01:55:24.006Z,2.60
2023-01-31T01:57:53.702Z,2.63
2023-01-31T02:00:22.840Z,2.80
2023-01-31T02:02:54.832Z,2.55
2023-01-31T02:05:27.423Z,3.00
2023-01-31T02:07:55.388Z,2.70
2023-01-31T02:10:25.369Z,3.00
2023-01-31T02:12:53.258Z,2.50
2023-01-31T02:15:21.980Z,2.55
2023-01-31T02:17:50.177Z,2.40
2023-01-31T02:20:43.385Z,2.85
2023-01-31T02:23:26.100Z,2.83
2023-01-31T02:26:18.027Z,2.75
2023-01-31T02:29:25.623Z,2.97
2023-01-31T02:32:17.957Z,2.35
2023-01-31T02:34:50.056Z,2.67
2023-01-31T02:37:22.011Z,2.55
2023-01-31T02:39:55.133Z,2.70
2023-01-31T02:42:25.096Z,2.40
2023-01-31T02:45:00.868Z,2.58
2023-01-31T02:47:34.413Z,2.30
2023-01-31T02:50:05.692Z,2.40
2023-01-31T02:52:36.536Z,2.40
2023-01-31T02:55:29.083Z,2.30
2023-01-31T02:57:58.291Z,2.10
2023-01-31T03:00:26.383Z,2.40
2023-01-31T03:02:54.611Z,2.45
2023-01-31T03:05:24.192Z,2.30
2023-01-31T03:07:53.419Z,2.47
2023-01-31T03:10:42.774Z,2.40
2023-01-31T03:13:22.424Z,2.28
2023-01-31T03:16:25.703Z,2.45
2023-01-31T03:18:56.142Z,2.08
2023-01-31T03:21:27.529Z,2.20
2023-01-31T03:23:56.757Z,2.00
2023-01-31T03:26:25.496Z,2.30
2023-01-31T03:28:57.131Z,2.10
2023-01-31T03:31:26.512Z,2.33
2023-01-31T03:33:56.397Z,2.28
2023-01-31T03:36:29.752Z,2.20
2023-01-31T03:39:11.037Z,2.00
2023-01-31T03:41:46.557Z,2.50
2023-01-31T03:44:17.031Z,2.33
2023-01-31T03:46:45.996Z,2.28
2023-01-31T03:49:14.618Z,2.10
2023-01-31T03:51:47.849Z,2.20
2023-01-31T03:54:18.952Z,2.17
2023-01-31T03:56:48.543Z,1.90
2023-01-31T03:59:17.486Z,2.30
2023-01-31T04:01:48.516Z,2.10
2023-01-31T04:04:18.859Z,2.00
2023-01-31T04:06:48.363Z,2.00
2023-01-31T04:09:16.467Z,1.83
2023-01-31T04:11:44.391Z,2.17
2023-01-31T04:14:12.544Z,1.90
2023-01-31T04:16:40.478Z,2.05
2023-01-31T04:19:08.401Z,1.88
2023-01-31T04:21:36.862Z,2.03
2023-01-31T04:24:07.123Z,2.30
2023-01-31T04:26:35.009Z,1.80
2023-01-31T04:29:02.905Z,1.80
2023-01-31T04:31:30.900Z,1.90
2023-01-31T04:33:59.897Z,2.13
2023-01-31T04:36:27.855Z,1.80
2023-01-31T04:38:55.741Z,1.60
2023-01-31T04:41:24.955Z,1.90
2023-01-31T04:43:52.849Z,1.65
2023-01-31T04:46:20.803Z,1.95
2023-01-31T04:48:48.761Z,1.70
2023-01-31T04:51:16.684Z,2.15
2023-01-31T04:53:44.925Z,1.55
2023-01-31T04:56:12.848Z,1.80
2023-01-31T04:58:43.443Z,2.00
2023-01-31T05:01:11.359Z,1.90
2023-01-31T05:03:39.359Z,2.00
2023-01-31T05:06:08.546Z,1.80
2023-01-31T05:08:36.588Z,1.88
2023-01-31T05:11:05.703Z,1.90
2023-01-31T05:13:34.542Z,1.70
2023-01-31T05:16:03.867Z,1.73
2023-01-31T05:18:31.779Z,1.73
2023-01-31T05:20:59.606Z,1.75
2023-01-31T05:23:27.498Z,1.70
2023-01-31T05:25:55.550Z,1.63
2023-01-31T05:28:25.547Z,1.50
2023-01-31T05:30:53.696Z,1.80
2023-01-31T05:33:23.223Z,1.70
2023-01-31T05:35:51.105Z,1.83
2023-01-31T05:38:18.981Z,1.88
2023-01-31T05:40:46.934Z,1.70
2023-01-31T05:43:14.815Z,1.60
2023-01-31T05:45:42.791Z,1.50
2023-01-31T05:48:10.737Z,1.40
2023-01-31T05:50:40.111Z,1.60
2023-01-31T05:53:11.046Z,1.88
2023-01-31T05:55:38.880Z,1.70
2023-01-31T05:58:06.757Z,1.45
2023-01-31T06:00:34.608Z,1.60
2023-01-31T06:03:03.117Z,1.38
2023-01-31T06:05:32.026Z,1.80
2023-01-31T06:08:01.341Z,1.40
2023-01-31T06:10:29.214Z,1.70
2023-01-31T06:12:57.109Z,1.70
2023-01-31T06:15:24.959Z,1.60
2023-01-31T06:17:52.804Z,1.40
2023-01-31T06:20:20.807Z,1.58
2023-01-31T06:22:48.744Z,1.58
2023-01-31T06:25:18.478Z,1.50
2023-01-31T06:27:46.639Z,1.50
2023-01-31T06:30:15.167Z,1.88
2023-01-31T06:32:43.013Z,1.70
2023-01-31T06:35:11.182Z,1.52
2023-01-31T06:37:39.071Z,2.05
2023-01-31T06:40:07.843Z,1.40
2023-01-31T06:42:37.219Z,1.33
2023-01-31T06:45:05.596Z,1.50
2023-01-31T06:47:33.917Z,1.92
2023-01-31T06:50:01.850Z,1.60
2023-01-31T06:52:30.463Z,1.50
2023-01-31T06:54:58.531Z,1.73
2023-01-31T06:57:26.429Z,1.60
2023-01-31T06:59:55.690Z,1.80
2023-01-31T07:02:23.565Z,1.48
2023-01-31T07:04:51.767Z,1.73
2023-01-31T07:07:19.656Z,1.30
2023-01-31T07:09:47.537Z,1.35
2023-01-31T07:12:15.399Z,1.50
2023-01-31T07:14:43.607Z,1.30
2023-01-31T07:17:12.859Z,1.40
2023-01-31T07:19:40.756Z,1.65
2023-01-31T07:22:08.581Z,1.50
2023-01-31T07:24:36.455Z,1.45
2023-01-31T07:27:04.439Z,1.40
2023-01-31T07:29:32.502Z,1.50
2023-01-31T07:32:00.418Z,1.48
2023-01-31T07:34:30.139Z,1.52
2023-01-31T07:36:58.068Z,1.33
2023-01-31T07:39:25.956Z,1.63
2023-01-31T07:41:53.799Z,1.35
2023-01-31T07:44:25.399Z,1.40
2023-01-31T07:46:54.837Z,1.52
2023-01-31T07:49:22.716Z,1.50
2023-01-31T07:51:51.917Z,1.50
2023-01-31T07:54:19.798Z,1.30
2023-01-31T07:56:47.726Z,1.48
2023-01-31T07:59:17.141Z,1.42
2023-01-31T08:02:02.404Z,1.30
2023-01-31T08:04:30.866Z,1.30
2023-01-31T08:07:02.882Z,1.50
2023-01-31T08:09:30.826Z,1.35
2023-01-31T08:11:58.880Z,1.48
2023-01-31T08:14:28.267Z,1.40
2023-01-31T08:16:56.613Z,1.20
2023-01-31T08:19:24.512Z,1.50
2023-01-31T08:21:52.404Z,1.50
2023-01-31T08:24:21.626Z,1.30
2023-01-31T08:26:49.541Z,1.25
2023-01-31T08:29:17.445Z,1.40
2023-01-31T08:31:45.513Z,1.42
2023-01-31T08:34:13.913Z,1.40
2023-01-31T08:36:41.777Z,1.60
2023-01-31T08:39:09.697Z,1.40
2023-01-31T08:41:39.514Z,1.50
2023-01-31T08:44:07.702Z,1.30
2023-01-31T08:46:36.275Z,1.30
2023-01-31T08:49:05.205Z,1.42
2023-01-31T08:51:33.047Z,1.50
2023-01-31T08:54:00.964Z,1.50
2023-01-31T08:56:28.983Z,1.48
2023-01-31T08:58:58.400Z,1.40
2023-01-31T09:01:26.262Z,1.30
2023-01-31T09:03:57.131Z,1.40
2023-01-31T09:06:27.034Z,1.20
2023-01-31T09:08:56.780Z,1.50
2023-01-31T09:11:24.684Z,1.83
2023-01-31T09:13:52.643Z,1.50
2023-01-31T09:16:22.230Z,1.33
2023-01-31T09:18:50.262Z,1.40
2023-01-31T09:21:18.936Z,1.30
2023-01-31T09:23:46.981Z,1.45
2023-01-31T09:26:15.111Z,1.30
2023-01-31T09:28:43.462Z,1.35
2023-01-31T09:31:12.869Z,1.30
2023-01-31T09:33:42.229Z,1.30
2023-01-31T09:36:11.413Z,1.38
2023-01-31T09:38:40.198Z,1.60
2023-01-31T09:41:15.480Z,1.58
2023-01-31T09:43:45.608Z,1.90
2023-01-31T09:46:15.547Z,1.80
2023-01-31T09:48:46.926Z,2.03
2023-01-31T09:51:14.906Z,2.33
2023-01-31T09:53:42.882Z,2.20
2023-01-31T09:56:21.056Z,1.90
2023-01-31T09:58:55.190Z,2.10
2023-01-31T10:01:26.007Z,2.30
2023-01-31T10:04:22.380Z,2.30
2023-01-31T10:06:52.169Z,2.20
2023-01-31T10:09:23.900Z,2.30
2023-01-31T10:11:53.511Z,2.25
2023-01-31T10:14:25.230Z,2.50
2023-01-31T10:16:59.405Z,3.75
2023-01-31T10:19:30.252Z,5.78
2023-01-31T10:22:00.715Z,4.70
2023-01-31T10:24:30.408Z,7.05
2023-01-31T10:27:00.049Z,7.78
2023-01-31T10:29:29.788Z,8.07
2023-01-31T10:31:59.875Z,7.50
2023-01-31T10:34:30.428Z,9.80
2023-01-31T10:37:00.097Z,11.43
2023-01-31T10:39:30.811Z,10.77
2023-01-31T10:42:10.814Z,9.35
2023-01-31T10:44:43.553Z,13.43
2023-01-31T10:47:13.223Z,17.88
2023-01-31T10:49:42.698Z,17.90
2023-01-31T10:52:18.138Z,18.00
2023-01-31T10:54:54.343Z,19.05
2023-01-31T10:57:22.556Z,16.13
2023-01-31T10:59:50.444Z,17.90
2023-01-31T11:02:21.049Z,18.38
2023-01-31T11:04:50.762Z,18.70
2023-01-31T11:07:18.649Z,19.00
2023-01-31T11:09:49.567Z,21.27
2023-01-31T11:12:17.460Z,18.85
2023-01-31T11:14:45.396Z,19.83
2023-01-31T11:17:16.954Z,19.73
2023-01-31T11:19:46.333Z,23.05
2023-01-31T11:22:22.353Z,24.30
2023-01-31T11:24:50.353Z,23.25
2023-01-31T11:27:25.682Z,23.10
2023-01-31T11:29:54.840Z,25.13
2023-01-31T11:32:23.688Z,25.55
2023-01-31T11:34:58.723Z,23.02
2023-01-31T11:37:29.366Z,23.85
2023-01-31T11:39:58.305Z,21.50
2023-01-31T11:42:26.349Z,21.60
2023-01-31T11:44:58.774Z,21.70
2023-01-31T11:47:32.596Z,21.42
2023-01-31T11:50:01.223Z,21.05
2023-01-31T11:52:31.800Z,22.95
2023-01-31T11:55:00.749Z,22.80
2023-01-31T11:57:31.531Z,23.35
2023-01-31T12:00:00.001Z,22.98
2023-01-31T12:02:34.415Z,22.40
2023-01-31T12:05:03.229Z,22.42
2023-01-31T12:07:41.728Z,23.67
2023-01-31T12:10:30.010Z,22.25
2023-01-31T12:13:16.458Z,21.33
2023-01-31T12:15:52.638Z,21.75
2023-01-31T12:18:29.903Z,22.88
2023-01-31T12:21:02.489Z,21.05
2023-01-31T12:23:36.301Z,20.95
2023-01-31T12:26:09.250Z,22.08
2023-01-31T12:28:44.547Z,19.88
2023-01-31T12:31:26.388Z,20.33
2023-01-31T12:34:02.562Z,19.85
2023-01-31T12:36:41.506Z,19.83
2023-01-31T12:39:24.083Z,19.55
2023-01-31T12:41:58.585Z,20.45
2023-01-31T12:44:35.537Z,20.05
2023-01-31T12:47:11.958Z,19.30
2023-01-31T12:49:49.846Z,19.38
2023-01-31T12:52:20.196Z,18.63
2023-01-31T12:54:58.236Z,18.08
2023-01-31T12:57:31.690Z,19.25
2023-01-31T13:00:08.297Z,18.38
2023-01-31T13:02:41.837Z,18.02
2023-01-31T13:05:28.232Z,17.98
2023-01-31T13:07:58.802Z,17.95
2023-01-31T13:10:36.726Z,17.45
2023-01-31T13:13:04.648Z,17.35
2023-01-31T13:15:33.989Z,17.60
2023-01-31T13:18:03.250Z,17.10
2023-01-31T13:20:32.749Z,17.42
2023-01-31T13:23:03.857Z,17.17
2023-01-31T13:25:37.184Z,16.25
2023-01-31T13:28:06.494Z,16.13
2023-01-31T13:30:37.148Z,16.88
2023-01-31T13:33:09.804Z,16.48
2023-01-31T13:35:39.364Z,16.48
2023-01-31T13:38:09.009Z,15.85
2023-01-31T13:40:41.871Z,16.63
2023-01-31T13:43:13.574Z,15.45
2023-01-31T13:45:44.091Z,16.02
2023-01-31T13:48:20.332Z,15.52
2023-01-31T13:50:49.982Z,15.57
2023-01-31T13:53:19.472Z,15.13
2023-01-31T13:55:49.102Z,14.70
2023-01-31T13:58:17.880Z,14.77
2023-01-31T14:00:46.266Z,13.95
2023-01-31T14:03:15.386Z,14.32
2023-01-31T14:06:08.228Z,14.00
2023-01-31T14:08:57.541Z,13.40
2023-01-31T14:11:36.630Z,12.35
2023-01-31T14:14:20.657Z,13.13
2023-01-31T14:16:51.728Z,12.90
2023-01-31T14:20:05.310Z,12.48
2023-01-31T14:22:35.055Z,11.93
2023-01-31T14:25:04.648Z,11.77
2023-01-31T14:27:35.964Z,13.13
2023-01-31T14:30:32.863Z,13.07
2023-01-31T14:33:25.454Z,11.88
2023-01-31T14:36:34.473Z,11.48
2023-01-31T14:39:48.175Z,11.20
2023-01-31T14:42:41.782Z,11.60
2023-01-31T14:45:25.957Z,12.10
2023-01-31T14:48:05.320Z,12.68
2023-01-31T14:50:45.810Z,12.95
2023-01-31T14:53:32.945Z,14.80
2023-01-31T14:56:07.835Z,14.80
2023-01-31T14:58:37.391Z,16.83
2023-01-31T15:01:06.381Z,14.25
2023-01-31T15:03:36.045Z,15.82
2023-01-31T15:06:08.760Z,16.05
2023-01-31T15:08:41.506Z,18.92
2023-01-31T15:11:14.138Z,19.50
2023-01-31T15:13:48.177Z,20.85
2023-01-31T15:16:26.364Z,18.55
2023-01-31T15:18:57.775Z,19.63
2023-01-31T15:21:27.660Z,17.58
2023-01-31T15:23:55.710Z,19.90
2023-01-31T15:26:23.965Z,18.77
2023-01-31T15:28:53.478Z,19.90
2023-01-31T15:31:24.552Z,21.55
2023-01-31T15:33:52.984Z,21.52
2023-01-31T15:36:26.553Z,20.45
2023-01-31T15:38:56.939Z,21.42
2023-01-31T15:41:26.258Z,21.48
2023-01-31T15:43:56.734Z,22.90
2023-01-31T15:46:29.665Z,22.30
2023-01-31T15:48:57.570Z,22.73
2023-01-31T15:51:25.765Z,24.98
2023-01-31T15:54:01.887Z,25.33
2023-01-31T15:56:30.083Z,24.13
2023-01-31T15:58:59.377Z,23.45
2023-01-31T16:01:30.307Z,23.67
2023-01-31T16:03:59.213Z,24.40
2023-01-31T16:06:27.981Z,23.75
2023-01-31T16:09:00.725Z,24.58
2023-01-31T16:11:33.308Z,26.23
2023-01-31T16:14:03.807Z,26.10
2023-01-31T16:16:31.820Z,25.75
2023-01-31T16:19:00.324Z,27.13
2023-01-31T16:21:30.768Z,26.27
2023-01-31T16:24:02.691Z,26.27
2023-01-31T16:26:33.674Z,26.08
2023-01-31T16:29:07.809Z,25.60
2023-01-31T16:31:37.081Z,26.48
2023-01-31T16:34:06.394Z,26.38
2023-01-31T16:36:35.565Z,25.70
2023-01-31T16:39:04.582Z,26.50
2023-01-31T16:41:41.891Z,25.70
2023-01-31T16:44:14.963Z,25.50
2023-01-31T16:46:45.421Z,24.23
2023-01-31T16:49:23.809Z,25.98
2023-01-31T16:51:51.937Z,27.17
2023-01-31T16:54:21.898Z,27.60
2023-01-31T16:57:06.664Z,26.50
2023-01-31T16:59:45.924Z,25.17
2023-01-31T17:02:27.562Z,26.02
2023-01-31T17:04:56.608Z,24.73
2023-01-31T17:07:25.420Z,26.13
2023-01-31T17:09:55.425Z,24.25
2023-01-31T17:12:24.917Z,24.63
2023-01-31T17:15:00.809Z,24.50
2023-01-31T17:17:34.197Z,24.13
2023-01-31T17:20:02.191Z,24.58
2023-01-31T17:22:30.276Z,23.88
2023-01-31T17:24:58.541Z,22.95
2023-01-31T17:27:26.481Z,23.52
2023-01-31T17:29:55.813Z,23.58
2023-01-31T17:32:23.721Z,22.48
2023-01-31T17:34:51.616Z,23.48
2023-01-31T17:37:30.204Z,22.92
2023-01-31T17:39:59.566Z,22.95
2023-01-31T17:42:27.496Z,23.70
2023-01-31T17:44:56.959Z,24.35
2023-01-31T17:47:26.854Z,23.75
2023-01-31T17:49:55.172Z,23.27
2023-01-31T17:52:23.117Z,24.25
2023-01-31T17:54:51.161Z,22.75
2023-01-31T17:57:19.146Z,23.67
2023-01-31T17:59:47.098Z,22.40
2023-01-31T18:02:16.322Z,22.23
2023-01-31T18:04:44.265Z,22.35
2023-01-31T18:07:16.504Z,22.52
2023-01-31T18:09:45.592Z,21.70
2023-01-31T18:12:13.479Z,22.13
2023-01-31T18:14:41.355Z,22.25
2023-01-31T18:17:09.253Z,22.40
2023-01-31T18:19:38.755Z,21.90
2023-01-31T18:22:06.674Z,21.27
2023-01-31T18:24:34.797Z,21.15
2023-01-31T18:27:02.731Z,20.83
2023-01-31T18:29:30.773Z,22.17
2023-01-31T18:32:02.449Z,21.73
2023-01-31T18:34:30.623Z,21.38
2023-01-31T18:37:00.000Z,20.33
2023-01-31T18:39:28.007Z,21.30
2023-01-31T18:41:57.098Z,20.45
2023-01-31T18:44:25.442Z,20.30
2023-01-31T18:46:53.451Z,19.05
2023-01-31T18:49:21.367Z,18.83
2023-01-31T18:51:49.822Z,17.33
2023-01-31T18:54:19.357Z,16.45
2023-01-31T18:56:47.326Z,15.50
2023-01-31T18:59:15.332Z,15.57
2023-01-31T19:01:43.738Z,15.02
2023-01-31T19:04:11.662Z,14.88
2023-01-31T19:06:40.985Z,14.60
2023-01-31T19:09:09.315Z,14.57
2023-01-31T19:11:40.331Z,14.30
2023-01-31T19:14:08.424Z,14.02
2023-01-31T19:16:37.948Z,13.48
2023-01-31T19:19:05.895Z,12.93
2023-01-31T19:21:34.636Z,13.43
2023-01-31T19:24:03.887Z,13.75
2023-01-31T19:26:32.320Z,13.07
2023-01-31T19:29:01.955Z,12.70
2023-01-31T19:31:31.809Z,12.45
2023-01-31T19:34:01.078Z,12.77
2023-01-31T19:36:30.461Z,11.45
2023-01-31T19:38:58.612Z,11.85
2023-01-31T19:41:26.972Z,11.75
2023-01-31T19:43:55.835Z,11.90
2023-01-31T19:46:26.139Z,11.63
2023-01-31T19:48:54.187Z,11.40
2023-01-31T19:51:23.184Z,12.43
2023-01-31T19:53:51.129Z,11.50
2023-01-31T19:56:19.049Z,11.10
2023-01-31T19:58:47.420Z,10.68
2023-01-31T20:01:16.221Z,10.80
2023-01-31T20:03:45.871Z,11.10
2023-01-31T20:06:14.708Z,11.20
2023-01-31T20:08:42.766Z,10.63
2023-01-31T20:11:10.962Z,11.27
2023-01-31T20:13:38.920Z,10.73
2023-01-31T20:16:08.052Z,10.98
2023-01-31T20:18:36.219Z,11.18
2023-01-31T20:21:05.916Z,11.82
2023-01-31T20:23:34.072Z,10.70
2023-01-31T20:26:03.095Z,11.35
2023-01-31T20:28:30.980Z,13.15
2023-01-31T20:31:04.436Z,12.65
2023-01-31T20:33:32.580Z,13.20
2023-01-31T20:36:00.507Z,12.15
2023-01-31T20:38:30.956Z,12.10
2023-01-31T20:40:58.990Z,12.68
2023-01-31T20:43:27.292Z,11.82
2023-01-31T20:46:01.939Z,11.35
2023-01-31T20:48:29.824Z,11.45
2023-01-31T20:50:57.854Z,12.27
2023-01-31T20:53:28.522Z,11.38
2023-01-31T20:56:02.012Z,11.18
2023-01-31T20:58:31.974Z,11.02
2023-01-31T21:01:00.970Z,10.55
2023-01-31T21:03:29.269Z,10.80
2023-01-31T21:05:58.625Z,10.80
2023-01-31T21:08:26.673Z,11.45
2023-01-31T21:10:55.384Z,11.85
2023-01-31T21:13:25.187Z,11.40
2023-01-31T21:15:53.472Z,11.32
2023-01-31T21:18:21.428Z,11.15
2023-01-31T21:20:49.375Z,10.10
2023-01-31T21:23:17.298Z,10.63
2023-01-31T21:25:45.324Z,9.65
2023-01-31T21:28:13.237Z,9.63
2023-01-31T21:30:42.647Z,9.40
2023-01-31T21:33:10.612Z,9.07
2023-01-31T21:35:38.562Z,8.93
2023-01-31T21:38:06.476Z,8.52
2023-01-31T21:40:34.435Z,8.20
2023-01-31T21:43:01.348Z,8.80
2023-01-31T21:45:40.341Z,8.13
2023-01-31T21:48:27.971Z,7.55
2023-01-31T21:50:55.892Z,7.18
2023-01-31T21:53:23.807Z,8.30
2023-01-31T21:55:51.696Z,7.20
2023-01-31T21:58:20.817Z,7.70
2023-01-31T22:00:48.860Z,6.88
2023-01-31T22:03:18.396Z,7.15
2023-01-31T22:05:46.669Z,7.57
2023-01-31T22:08:14.723Z,7.22
2023-01-31T22:10:42.612Z,7.13
2023-01-31T22:13:10.490Z,7.20
2023-01-31T22:15:38.381Z,7.20
2023-01-31T22:18:06.360Z,7.60
2023-01-31T22:20:35.653Z,6.53
2023-01-31T22:23:03.542Z,6.38
2023-01-31T22:25:31.413Z,6.82
2023-01-31T22:27:59.295Z,6.63
2023-01-31T22:30:27.170Z,7.53
2023-01-31T22:32:55.052Z,6.90
2023-01-31T22:35:22.969Z,6.45
2023-01-31T22:37:52.589Z,6.60
2023-01-31T22:40:20.864Z,6.15
2023-01-31T22:42:48.912Z,6.25
2023-01-31T22:45:16.847Z,6.53
2023-01-31T22:47:44.689Z,6.63
2023-01-31T22:50:12.618Z,5.93
2023-01-31T22:52:40.499Z,6.05
2023-01-31T22:55:10.565Z,6.13
2023-01-31T22:57:38.458Z,5.40
2023-01-31T23:00:09.368Z,6.30
2023-01-31T23:02:37.310Z,5.80
2023-01-31T23:05:05.469Z,5.85
2023-01-31T23:07:33.329Z,5.97
2023-01-31T23:10:01.205Z,5.32
2023-01-31T23:12:30.400Z,5.90
2023-01-31T23:14:58.294Z,5.57
2023-01-31T23:17:38.238Z,5.70
2023-01-31T23:20:07.501Z,5.70
2023-01-31T23:22:35.393Z,5.00
2023-01-31T23:25:03.403Z,5.45
2023-01-31T23:27:32.745Z,5.13
2023-01-31T23:30:00.651Z,5.60
2023-01-31T23:32:28.578Z,5.07
2023-01-31T23:34:56.724Z,4.90
2023-01-31T23:37:24.711Z,5.47
2023-01-31T23:39:52.579Z,4.65
2023-01-31T23:42:20.482Z,5.25
2023-01-31T23:44:49.898Z,4.68
2023-01-31T23:47:17.841Z,5.35
2023-01-31T23:49:45.680Z,4.78
2023-01-31T23:52:13.546Z,4.78
2023-01-31T23:54:41.449Z,5.10
2023-01-31T23:57:09.397Z,5.00
2023-01-31T23:59:37.285Z,4.80
